Time;durP1;ratioP1;P1;durP2;ratioP2;P2;SDS_P1;SDS_P2;PMS_P1;PMS_P2;Temp;Humidity;BMP_temperature;BMP_pressure;BME280_temperature;BME280_humidity;BME280_pressure;Samples;Min_cycle;Max_cycle;Signal;HPM_P1;HPM_P2
2022/08/06 00:00:45;;;;;;;7.22;2.95;;;12.10;99.90;;;;;;5018271;28;20030;-86
2022/08/06 00:03:11;;;;;;;7.43;2.72;;;11.90;99.90;;;;;;5018169;28;20053;-86
2022/08/06 00:05:36;;;;;;;9.90;3.00;;;11.90;99.90;;;;;;5016580;28;20041;-86
2022/08/06 00:08:02;;;;;;;9.02;2.75;;;11.80;99.90;;;;;;5012834;28;20030;-86
2022/08/06 00:10:29;;;;;;;7.90;2.80;;;11.70;99.90;;;;;;5010896;28;20402;-86
2022/08/06 00:12:54;;;;;;;7.60;3.10;;;11.50;99.90;;;;;;5016466;28;20568;-86
2022/08/06 00:15:20;;;;;;;9.88;3.58;;;11.50;99.90;;;;;;5023706;28;20064;-86
2022/08/06 00:17:46;;;;;;;6.75;2.75;;;11.50;99.90;;;;;;5011454;28;20117;-86
2022/08/06 00:20:13;;;;;;;8.65;3.17;;;11.50;99.90;;;;;;5014290;28;20030;-86
2022/08/06 00:22:39;;;;;;;9.98;3.10;;;11.30;99.90;;;;;;5021168;28;20470;-86
2022/08/06 00:25:07;;;;;;;9.32;3.15;;;11.30;99.90;;;;;;5017844;28;20053;-86
2022/08/06 00:27:33;;;;;;;8.77;3.50;;;11.20;99.90;;;;;;5014775;28;20032;-86
2022/08/06 00:29:59;;;;;;;8.75;2.60;;;11.30;99.90;;;;;;5015554;28;20478;-86
2022/08/06 00:32:25;;;;;;;13.40;3.40;;;11.30;99.90;;;;;;5019920;28;20137;-86
2022/08/06 00:34:51;;;;;;;8.25;3.13;;;11.30;99.90;;;;;;5014158;28;20037;-86
2022/08/06 00:37:16;;;;;;;8.98;2.90;;;11.30;99.90;;;;;;5014159;28;20054;-86
2022/08/06 00:39:42;;;;;;;10.40;3.10;;;11.40;99.90;;;;;;5013466;28;20030;-86
2022/08/06 00:42:08;;;;;;;10.48;3.30;;;11.40;99.90;;;;;;5011926;28;20053;-86
2022/08/06 00:44:34;;;;;;;8.80;2.90;;;11.50;99.90;;;;;;5015315;28;20466;-85
2022/08/06 00:47:00;;;;;;;9.07;2.80;;;11.60;99.90;;;;;;5009581;28;20033;-85
2022/08/06 00:49:26;;;;;;;7.72;2.80;;;11.60;99.90;;;;;;5011037;28;20026;-85
2022/08/06 00:51:51;;;;;;;9.07;2.58;;;11.60;99.90;;;;;;5027454;28;20025;-85
2022/08/06 00:54:18;;;;;;;6.35;2.80;;;11.90;99.90;;;;;;5009835;28;20468;-85
2022/08/06 00:56:43;;;;;;;7.15;2.45;;;12.00;99.90;;;;;;5011788;28;20034;-85
2022/08/06 00:59:09;;;;;;;6.82;2.60;;;11.90;99.90;;;;;;5018973;28;20026;-85
2022/08/06 01:01:34;;;;;;;6.05;2.30;;;11.80;99.90;;;;;;5005198;28;20038;-86
2022/08/06 01:04:00;;;;;;;6.30;2.70;;;11.70;99.90;;;;;;5012768;28;20042;-86
2022/08/06 01:06:26;;;;;;;9.98;2.75;;;11.50;99.90;;;;;;5011423;28;20484;-86
2022/08/06 01:08:51;;;;;;;8.77;2.70;;;11.40;99.90;;;;;;5009644;28;20054;-85
2022/08/06 01:11:17;;;;;;;6.15;2.50;;;11.20;99.90;;;;;;5007195;28;20018;-85
2022/08/06 01:13:43;;;;;;;6.88;2.40;;;11.20;99.90;;;;;;5006559;28;20045;-85
2022/08/06 01:16:17;;;;;;;9.63;2.78;;;11.00;99.90;;;;;;5014219;28;20030;-85
2022/08/06 01:19:18;;;;;;;7.55;2.85;;;10.90;99.90;;;;;;5020154;28;20141;-85
2022/08/06 01:21:58;;;;;;;8.15;3.13;;;11.00;99.90;;;;;;4985047;28;20489;-85
2022/08/06 01:24:32;;;;;;;8.60;2.92;;;10.90;99.90;;;;;;5004199;28;20079;-85
2022/08/06 01:27:28;;;;;;;7.93;2.95;;;10.70;99.90;;;;;;5012210;28;20030;-86
2022/08/06 01:30:00;;;;;;;6.97;2.60;;;10.60;99.90;;;;;;5002176;28;20493;-86
2022/08/06 01:32:35;;;;;;;6.63;2.83;;;10.50;99.90;;;;;;5003671;28;20036;-85
2022/08/06 01:35:18;;;;;;;6.40;2.97;;;10.40;99.90;;;;;;5012476;28;20037;-85
2022/08/06 01:37:58;;;;;;;6.20;2.85;;;10.30;99.90;;;;;;4996187;28;20029;-85
2022/08/06 01:40:29;;;;;;;6.88;2.95;;;10.20;99.90;;;;;;5010421;28;20529;-85
2022/08/06 01:42:56;;;;;;;6.97;3.15;;;10.10;99.90;;;;;;5005280;28;20025;-85
2022/08/06 01:45:26;;;;;;;7.68;3.30;;;10.00;99.90;;;;;;5003477;28;20026;-85
2022/08/06 01:47:56;;;;;;;9.52;3.40;;;10.00;99.90;;;;;;5004669;28;20068;-85
2022/08/06 01:50:27;;;;;;;9.35;3.17;;;9.90;99.90;;;;;;5005432;28;20032;-85
2022/08/06 01:52:54;;;;;;;8.23;3.20;;;9.90;99.90;;;;;;4998619;28;20418;-85
2022/08/06 01:55:21;;;;;;;10.43;3.60;;;9.90;99.90;;;;;;5027344;28;20537;-85
2022/08/06 01:57:52;;;;;;;10.85;3.75;;;10.00;99.90;;;;;;5007500;28;20065;-85
2022/08/06 02:00:19;;;;;;;8.18;3.40;;;9.90;99.90;;;;;;5003120;28;20423;-85
2022/08/06 02:02:46;;;;;;;9.63;3.47;;;9.90;99.90;;;;;;5009313;28;20030;-85
2022/08/06 02:05:15;;;;;;;8.45;3.70;;;9.80;99.90;;;;;;5010338;28;20046;-85
2022/08/06 02:07:43;;;;;;;8.05;3.20;;;9.80;99.90;;;;;;5009520;28;20418;-85
2022/08/06 02:10:12;;;;;;;7.32;3.03;;;9.80;99.90;;;;;;5002496;28;20038;-85
2022/08/06 02:12:40;;;;;;;7.40;3.25;;;9.80;99.90;;;;;;5000718;28;20026;-85
2022/08/06 02:15:20;;;;;;;12.15;4.57;;;9.90;99.90;;;;;;4999632;28;20113;-85
2022/08/06 02:17:49;;;;;;;;;;;9.80;99.90;;;;;;5010032;28;20390;-85
2022/08/06 02:20:17;;;;;;;7.75;2.90;;;9.70;99.90;;;;;;5003251;28;20005;-85
2022/08/06 02:22:45;;;;;;;6.95;3.17;;;9.60;99.90;;;;;;5020683;28;20026;-85
2022/08/06 02:25:13;;;;;;;7.93;3.47;;;9.80;99.90;;;;;;5008959;28;20555;-85
2022/08/06 02:27:44;;;;;;;9.98;3.42;;;9.50;99.90;;;;;;5019741;28;20151;-85
2022/08/06 02:30:11;;;;;;;8.02;3.38;;;9.50;99.90;;;;;;5006289;28;20363;-85
2022/08/06 02:32:36;;;;;;;10.23;3.45;;;9.40;99.90;;;;;;5003123;28;20042;-85
2022/08/06 02:35:02;;;;;;;7.40;3.40;;;9.50;99.90;;;;;;5008405;28;20034;-85
2022/08/06 02:37:34;;;;;;;10.18;3.78;;;9.50;99.90;;;;;;5005968;28;20053;-85
2022/08/06 02:40:08;;;;;;;8.35;3.65;;;9.40;99.90;;;;;;5006812;28;20481;-85
2022/08/06 02:42:48;;;;;;;15.23;3.53;;;9.40;99.90;;;;;;5001791;28;20092;-86
2022/08/06 02:45:30;;;;;;;8.80;3.60;;;9.40;99.90;;;;;;5008348;28;20482;-86
2022/08/06 02:48:06;;;;;;;7.32;3.40;;;9.50;99.90;;;;;;5006945;28;20026;-85
2022/08/06 02:50:39;;;;;;;9.52;4.05;;;9.50;99.90;;;;;;5003731;28;20058;-85
2022/08/06 02:53:13;;;;;;;9.35;3.70;;;9.50;99.90;;;;;;5005393;28;20041;-85
2022/08/06 02:55:45;;;;;;;9.10;3.80;;;9.40;99.90;;;;;;5000781;28;20049;-85
2022/08/06 02:58:12;;;;;;;10.88;3.97;;;9.40;99.90;;;;;;4998418;28;20500;-85
2022/08/06 03:00:41;;;;;;;9.10;3.88;;;9.40;99.90;;;;;;5009260;28;20050;-85
2022/08/06 03:03:07;;;;;;;10.40;3.80;;;9.30;99.90;;;;;;5007246;28;20406;-85
2022/08/06 03:05:36;;;;;;;8.80;3.88;;;9.30;99.90;;;;;;5010887;28;20405;-85
2022/08/06 03:08:06;;;;;;;9.90;3.92;;;9.30;99.90;;;;;;5007323;28;20028;-85
2022/08/06 03:10:33;;;;;;;9.48;4.00;;;9.20;99.90;;;;;;5013159;28;20111;-85
2022/08/06 03:13:00;;;;;;;8.60;3.60;;;9.10;99.90;;;;;;5002427;28;20034;-85
2022/08/06 03:15:28;;;;;;;10.85;3.60;;;9.20;99.90;;;;;;5006425;28;20026;-85
2022/08/06 03:17:58;;;;;;;9.98;3.72;;;9.00;99.90;;;;;;4997312;28;20022;-85
2022/08/06 03:20:26;;;;;;;8.57;3.75;;;9.10;99.90;;;;;;5020969;28;20465;-85
2022/08/06 03:22:55;;;;;;;8.80;3.85;;;9.10;99.90;;;;;;5008984;28;20163;-85
2022/08/06 03:25:21;;;;;;;9.60;3.70;;;9.00;99.90;;;;;;5003724;28;20036;-85
2022/08/06 03:27:48;;;;;;;8.63;3.83;;;9.00;99.90;;;;;;5004154;28;20033;-85
2022/08/06 03:30:19;;;;;;;8.43;3.78;;;8.90;99.90;;;;;;5008895;28;20386;-85
2022/08/06 03:32:47;;;;;;;10.82;4.05;;;8.90;99.90;;;;;;5007922;28;20084;-85
2022/08/06 03:35:14;;;;;;;7.93;3.80;;;8.90;99.90;;;;;;5008277;28;20018;-85
2022/08/06 03:37:42;;;;;;;8.52;3.78;;;8.80;99.90;;;;;;5007673;28;20185;-85
2022/08/06 03:40:10;;;;;;;8.15;3.88;;;8.80;99.90;;;;;;5006147;28;20034;-85
2022/08/06 03:42:36;;;;;;;10.30;4.32;;;8.70;99.90;;;;;;5008042;28;20018;-85
2022/08/06 03:45:02;;;;;;;10.15;4.05;;;8.70;99.90;;;;;;5014892;28;20105;-85
2022/08/06 03:47:32;;;;;;;12.10;4.45;;;8.70;99.90;;;;;;5010204;28;20034;-85
2022/08/06 03:50:04;;;;;;;;;;;8.90;99.90;;;;;;5011358;28;20053;-85
2022/08/06 03:52:32;;;;;;;11.07;4.25;;;8.70;99.90;;;;;;5024820;28;19893;-85
2022/08/06 03:55:07;;;;;;;9.05;4.05;;;8.70;99.90;;;;;;5011413;28;20469;-85
2022/08/06 03:57:36;;;;;;;11.45;4.22;;;8.70;99.90;;;;;;5013287;28;20033;-85
2022/08/06 04:00:03;;;;;;;7.78;3.70;;;8.90;99.90;;;;;;4999226;28;20439;-85
2022/08/06 04:02:40;;;;;;;7.90;3.70;;;8.60;99.90;;;;;;5010758;28;20037;-85
2022/08/06 04:05:07;;;;;;;8.10;3.95;;;8.60;99.90;;;;;;5006148;28;20049;-85
2022/08/06 04:07:33;;;;;;;8.13;4.13;;;8.60;99.90;;;;;;5010076;28;20021;-85
2022/08/06 04:10:00;;;;;;;9.43;4.28;;;8.60;99.90;;;;;;5011657;28;20499;-85
2022/08/06 04:12:28;;;;;;;8.88;4.35;;;8.50;99.90;;;;;;5013793;28;20018;-85
2022/08/06 04:14:54;;;;;;;11.60;4.43;;;8.50;99.90;;;;;;5021714;28;20105;-85
2022/08/06 04:17:22;;;;;;;12.18;4.40;;;8.60;99.90;;;;;;5006542;28;20486;-85
2022/08/06 04:19:49;;;;;;;11.30;4.60;;;8.70;99.90;;;;;;5020875;28;20029;-85
2022/08/06 04:22:15;;;;;;;10.70;4.32;;;8.70;99.90;;;;;;5008497;28;20045;-85
2022/08/06 04:24:41;;;;;;;10.70;4.68;;;8.70;99.90;;;;;;5010401;28;20010;-85
2022/08/06 04:27:08;;;;;;;9.90;4.60;;;8.80;99.90;;;;;;5015140;28;20057;-85
2022/08/06 04:29:36;;;;;;;9.52;4.80;;;8.70;99.90;;;;;;5005652;28;20025;-85
2022/08/06 04:32:03;;;;;;;10.98;5.00;;;8.70;99.90;;;;;;5014364;28;20121;-85
2022/08/06 04:34:30;;;;;;;10.27;4.70;;;8.70;99.90;;;;;;5006473;28;20022;-85
2022/08/06 04:36:58;;;;;;;10.07;4.70;;;8.70;99.90;;;;;;5009934;28;20149;-85
2022/08/06 04:39:24;;;;;;;9.98;4.90;;;8.90;99.90;;;;;;5011605;28;20077;-85
2022/08/06 04:41:51;;;;;;;10.23;4.82;;;9.10;99.90;;;;;;5008870;28;20026;-85
2022/08/06 04:44:17;;;;;;;13.38;5.10;;;9.00;99.90;;;;;;5008558;28;20092;-85
2022/08/06 04:46:48;;;;;;;11.43;5.07;;;9.20;99.90;;;;;;5010134;28;20046;-85
2022/08/06 04:49:15;;;;;;;11.18;5.13;;;9.30;99.90;;;;;;5013290;28;20018;-85
2022/08/06 04:51:44;;;;;;;13.65;5.15;;;9.50;99.90;;;;;;5006033;28;20023;-85
2022/08/06 04:54:09;;;;;;;10.90;5.63;;;9.50;99.90;;;;;;5013409;28;20029;-85
2022/08/06 04:56:35;;;;;;;11.35;5.53;;;9.60;99.90;;;;;;4998731;28;20018;-85
2022/08/06 04:59:01;;;;;;;12.57;5.50;;;9.60;99.90;;;;;;5011893;28;20109;-85
2022/08/06 05:01:26;;;;;;;11.50;4.85;;;9.90;99.90;;;;;;5013638;28;20208;-85
2022/08/06 05:03:52;;;;;;;18.63;6.15;;;9.80;99.90;;;;;;5014328;28;20704;-85
2022/08/06 05:06:40;;;;;;;13.05;6.07;;;9.90;99.90;;;;;;5018263;28;20051;-85
2022/08/06 05:09:11;;;;;;;15.18;6.60;;;10.10;99.90;;;;;;5006152;28;20064;-84
2022/08/06 05:11:41;;;;;;;14.85;6.72;;;10.20;99.90;;;;;;5012346;28;20371;-84
2022/08/06 05:14:15;;;;;;;14.20;7.07;;;10.20;99.90;;;;;;4999904;28;20512;-85
2022/08/06 05:16:45;;;;;;;15.02;6.95;;;10.30;99.90;;;;;;5013157;28;20034;-85
2022/08/06 05:19:39;;;;;;;16.23;6.47;;;10.50;99.90;;;;;;5008870;28;20036;-85
2022/08/06 05:22:08;;;;;;;13.88;6.70;;;10.60;99.90;;;;;;5006564;28;20026;-85
2022/08/06 05:24:34;;;;;;;13.68;6.28;;;10.70;99.90;;;;;;4998498;28;20382;-85
2022/08/06 05:27:00;;;;;;;13.57;6.18;;;10.80;99.90;;;;;;5004339;28;20023;-85
2022/08/06 05:29:25;;;;;;;13.32;6.60;;;11.00;99.90;;;;;;5003780;28;20014;-85
2022/08/06 05:31:58;;;;;;;15.05;5.72;;;11.30;99.90;;;;;;5012104;28;20026;-85
2022/08/06 05:34:23;;;;;;;10.82;5.60;;;11.40;99.90;;;;;;5005434;28;20073;-85
2022/08/06 05:36:49;;;;;;;12.68;4.85;;;11.60;99.90;;;;;;5018565;28;20031;-85
2022/08/06 05:39:14;;;;;;;10.52;4.72;;;11.90;99.90;;;;;;5008098;28;20022;-85
2022/08/06 05:41:41;;;;;;;13.00;5.32;;;12.30;99.90;;;;;;5004287;28;20064;-85
2022/08/06 05:44:06;;;;;;;9.90;4.30;;;12.50;99.90;;;;;;5009616;28;20033;-85
2022/08/06 05:46:44;;;;;;;12.00;4.25;;;12.50;99.90;;;;;;5009567;28;20018;-84
2022/08/06 05:49:14;;;;;;;14.60;4.63;;;12.60;99.90;;;;;;5006863;28;20031;-85
2022/08/06 05:51:58;;;;;;;13.30;5.57;;;12.70;99.90;;;;;;5010153;28;20033;-85
2022/08/06 05:54:27;;;;;;;12.45;4.93;;;12.80;99.90;;;;;;5007787;28;20033;-85
2022/08/06 05:57:09;;;;;;;10.00;4.93;;;12.90;99.90;;;;;;5008065;28;20501;-84
2022/08/06 05:59:38;;;;;;;11.88;5.30;;;13.00;99.90;;;;;;5006301;28;20034;-85
2022/08/06 06:02:06;;;;;;;13.77;5.00;;;13.00;99.90;;;;;;5006017;28;20523;-83
2022/08/06 06:04:32;;;;;;;15.20;4.60;;;13.10;99.90;;;;;;5015824;28;20066;-82
2022/08/06 06:06:59;;;;;;;10.75;4.35;;;13.10;99.90;;;;;;5009843;28;20503;-82
2022/08/06 06:09:26;;;;;;;9.02;4.60;;;13.20;99.90;;;;;;5003202;28;20488;-82
2022/08/06 06:11:52;;;;;;;8.98;4.47;;;13.30;99.90;;;;;;5003425;28;20029;-83
2022/08/06 06:14:36;;;;;;;10.25;4.07;;;13.40;99.90;;;;;;5007416;28;20449;-83
2022/08/06 06:17:07;;;;;;;9.75;4.15;;;13.50;99.90;;;;;;5007748;28;20085;-82
2022/08/06 06:19:43;;;;;;;10.15;4.65;;;13.60;99.90;;;;;;5007523;28;20125;-82
2022/08/06 06:22:21;;;;;;;10.88;4.32;;;13.70;99.90;;;;;;5008126;28;20042;-82
2022/08/06 06:24:53;;;;;;;10.57;4.50;;;13.70;99.90;;;;;;4999813;28;20642;-82
2022/08/06 06:28:02;;;;;;;9.73;4.95;;;13.80;99.90;;;;;;5005816;28;20049;-83
2022/08/06 06:30:37;;;;;;;11.63;4.53;;;13.90;99.90;;;;;;4963418;28;20044;-83
2022/08/06 06:33:28;;;;;;;13.80;4.47;;;14.00;99.90;;;;;;4999813;28;20032;-82
2022/08/06 06:35:59;;;;;;;8.95;3.58;;;14.10;99.90;;;;;;5000074;28;20483;-82
2022/08/06 06:39:06;;;;;;;11.00;4.10;;;14.20;99.90;;;;;;5005548;28;20026;-82
2022/08/06 06:41:37;;;;;;;9.07;4.00;;;14.30;99.90;;;;;;4966455;28;20034;-83
2022/08/06 06:44:18;;;;;;;9.30;3.60;;;14.40;99.90;;;;;;4957585;28;20031;-82
2022/08/06 06:46:54;;;;;;;8.27;3.00;;;14.50;99.90;;;;;;4985641;28;20520;-83
2022/08/06 06:49:49;;;;;;;8.88;3.70;;;14.60;99.90;;;;;;5003913;28;20101;-82
2022/08/06 06:52:31;;;;;;;8.30;3.13;;;14.80;99.90;;;;;;5005125;28;20530;-81
2022/08/06 06:55:24;;;;;;;11.48;2.80;;;14.80;99.90;;;;;;5001342;28;20030;-81
2022/08/06 06:58:01;;;;;;;9.90;2.38;;;14.90;99.90;;;;;;5000856;28;20031;-81
2022/08/06 07:00:27;;;;;;;7.97;2.40;;;15.10;99.90;;;;;;5007827;28;20033;-82
2022/08/06 07:02:55;;;;;;;10.13;2.50;;;15.30;99.90;;;;;;5009532;28;20045;-82
2022/08/06 07:05:23;;;;;;;7.10;2.17;;;15.30;99.90;;;;;;5019443;28;20545;-81
2022/08/06 07:07:49;;;;;;;7.68;2.50;;;15.50;99.90;;;;;;5010058;28;20022;-82
2022/08/06 07:10:17;;;;;;;6.75;2.40;;;15.60;99.90;;;;;;4999331;28;20063;-82
2022/08/06 07:12:44;;;;;;;7.60;2.50;;;15.70;99.90;;;;;;5005829;28;20041;-82
2022/08/06 07:15:12;;;;;;;9.00;2.80;;;15.90;99.90;;;;;;5008209;28;20069;-82
2022/08/06 07:17:38;;;;;;;9.43;3.47;;;16.00;99.90;;;;;;5007258;28;20419;-82
2022/08/06 07:20:10;;;;;;;10.52;3.92;;;16.00;99.90;;;;;;5023840;28;20574;-83
2022/08/06 07:22:41;;;;;;;9.32;3.53;;;16.00;99.90;;;;;;5007343;28;20027;-82
2022/08/06 07:25:09;;;;;;;11.30;3.40;;;15.90;99.90;;;;;;5002916;28;20028;-82
2022/08/06 07:27:37;;;;;;;8.27;3.33;;;16.00;99.90;;;;;;5006794;28;20570;-82
2022/08/06 07:30:05;;;;;;;9.05;2.83;;;16.20;99.90;;;;;;5019764;28;20014;-82
2022/08/06 07:32:33;;;;;;;9.27;3.05;;;16.40;99.90;;;;;;5008143;28;20836;-82
2022/08/06 07:35:00;;;;;;;7.72;2.65;;;16.40;99.90;;;;;;5011452;28;20540;-83
2022/08/06 07:37:27;;;;;;;6.53;2.30;;;16.70;99.90;;;;;;5011301;28;20050;-82
2022/08/06 07:39:55;;;;;;;10.43;2.90;;;16.80;99.90;;;;;;5003815;28;20077;-82
2022/08/06 07:42:24;;;;;;;8.40;2.10;;;16.90;99.90;;;;;;5008359;28;20049;-82
2022/08/06 07:44:54;;;;;;;9.70;1.63;;;17.00;99.90;;;;;;5012201;28;20119;-82
2022/08/06 07:47:29;;;;;;;8.07;1.95;;;17.20;99.90;;;;;;5012725;28;20026;-82
2022/08/06 07:49:57;;;;;;;6.75;2.03;;;17.10;99.90;;;;;;5002394;28;20023;-82
2022/08/06 07:52:25;;;;;;;6.95;2.00;;;17.10;99.90;;;;;;5010073;28;20037;-82
2022/08/06 07:54:55;;;;;;;7.18;1.70;;;17.30;99.90;;;;;;5002425;28;20061;-82
2022/08/06 07:57:22;;;;;;;6.35;1.50;;;17.10;99.90;;;;;;5003365;28;20413;-82
2022/08/06 07:59:49;;;;;;;4.65;1.65;;;17.40;99.90;;;;;;5011038;28;20040;-82
2022/08/06 08:02:16;;;;;;;5.00;1.42;;;17.40;99.90;;;;;;5012746;28;20022;-82
2022/08/06 08:07:28;;;;;;;4.97;1.40;;;17.60;99.90;;;;;;5003507;28;20034;-83
2022/08/06 08:09:54;;;;;;;6.32;1.40;;;17.50;99.90;;;;;;5011729;28;20023;-83
2022/08/06 08:12:21;;;;;;;3.38;1.20;;;17.80;99.90;;;;;;5012185;28;20399;-83
2022/08/06 08:14:48;;;;;;;6.28;1.50;;;18.00;99.90;;;;;;5018342;28;20026;-82
2022/08/06 08:17:14;;;;;;;6.28;1.40;;;18.20;99.90;;;;;;5014044;28;20029;-82
2022/08/06 08:19:40;;;;;;;5.57;1.33;;;18.20;99.90;;;;;;5010810;28;20033;-82
2022/08/06 08:22:13;;;;;;;3.70;1.33;;;18.40;99.90;;;;;;5009291;28;20022;-82
2022/08/06 08:24:39;;;;;;;5.20;1.30;;;18.90;99.90;;;;;;5017997;28;20013;-82
2022/08/06 08:27:10;;;;;;;4.07;1.30;;;18.70;99.90;;;;;;5001483;28;20018;-83
2022/08/06 08:29:37;;;;;;;3.53;1.20;;;18.80;99.90;;;;;;5002813;28;20451;-82
2022/08/06 08:32:04;;;;;;;3.45;1.00;;;19.70;99.90;;;;;;4999952;28;20058;-82
2022/08/06 08:34:30;;;;;;;5.63;1.10;;;20.50;99.70;;;;;;5009474;28;20088;-82
2022/08/06 08:36:56;;;;;;;3.97;1.13;;;21.10;98.40;;;;;;5000001;28;20056;-82
2022/08/06 08:39:22;;;;;;;4.63;1.00;;;20.70;97.50;;;;;;5014028;28;20471;-83
2022/08/06 08:41:52;;;;;;;2.90;1.08;;;20.20;99.10;;;;;;5011427;28;20034;-82
2022/08/06 08:44:21;;;;;;;;;;;20.30;99.90;;;;;;5008133;28;20025;-83
2022/08/06 08:46:48;;;;;;;3.60;1.00;;;21.30;97.60;;;;;;5009500;28;19916;-83
2022/08/06 08:49:20;;;;;;;2.67;1.00;;;22.20;95.80;;;;;;5016672;28;20026;-84
2022/08/06 08:51:46;;;;;;;5.38;1.20;;;21.60;96.00;;;;;;5012458;28;20096;-84
2022/08/06 08:54:16;;;;;;;2.97;0.93;;;21.00;94.50;;;;;;5013874;28;20026;-84
2022/08/06 08:56:43;;;;;;;5.65;1.02;;;21.70;94.30;;;;;;5010877;28;20537;-84
2022/08/06 08:59:09;;;;;;;3.53;1.10;;;22.70;93.20;;;;;;5009380;28;20042;-84
2022/08/06 09:01:35;;;;;;;3.70;1.20;;;21.90;95.30;;;;;;5010392;28;20044;-84
2022/08/06 09:04:04;;;;;;;5.05;1.20;;;21.90;96.00;;;;;;5008185;28;20033;-84
2022/08/06 09:06:32;;;;;;;5.53;1.20;;;21.70;94.80;;;;;;5012504;28;20056;-84
2022/08/06 09:09:03;;;;;;;6.68;1.25;;;21.30;97.30;;;;;;5013570;28;20018;-85
2022/08/06 09:11:30;;;;;;;3.72;1.30;;;21.70;94.60;;;;;;5010177;28;20076;-84
2022/08/06 09:13:55;;;;;;;6.93;1.50;;;21.00;96.40;;;;;;5003109;28;20540;-85
2022/08/06 09:16:21;;;;;;;4.88;1.50;;;20.20;98.70;;;;;;5005380;28;20034;-85
2022/08/06 09:18:47;;;;;;;4.35;1.23;;;19.80;98.90;;;;;;5012587;28;20561;-85
2022/08/06 09:21:13;;;;;;;5.10;1.50;;;19.80;99.80;;;;;;5008776;28;20034;-85
2022/08/06 09:23:39;;;;;;;3.33;1.17;;;19.80;99.40;;;;;;5011472;28;20022;-85
2022/08/06 09:26:06;;;;;;;3.22;1.17;;;19.80;97.00;;;;;;5010270;28;20022;-85
2022/08/06 09:28:41;;;;;;;3.78;1.20;;;19.50;98.10;;;;;;5009244;28;20022;-85
2022/08/06 09:31:12;;;;;;;3.75;1.10;;;19.30;97.80;;;;;;5014152;28;20542;-85
2022/08/06 09:33:52;;;;;;;2.90;1.10;;;19.10;99.80;;;;;;5014279;28;20083;-85
2022/08/06 09:36:18;;;;;;;3.00;0.85;;;19.20;97.30;;;;;;5009963;28;20042;-86
2022/08/06 09:38:55;;;;;;;3.40;1.02;;;20.90;95.30;;;;;;5009361;28;20867;-85
2022/08/06 09:41:23;;;;;;;3.22;1.13;;;22.60;92.70;;;;;;5005815;28;20037;-86
2022/08/06 09:43:54;;;;;;;3.40;0.90;;;24.40;85.80;;;;;;5019837;28;20026;-86
2022/08/06 09:46:44;;;;;;;2.70;0.80;;;24.30;77.90;;;;;;5008111;28;20490;-85
2022/08/06 09:49:12;;;;;;;2.67;0.90;;;23.20;82.60;;;;;;5000928;28;20060;-85
2022/08/06 09:51:38;;;;;;;4.45;0.88;;;22.00;86.90;;;;;;5014360;28;20033;-85
2022/08/06 09:54:07;;;;;;;4.90;0.85;;;21.90;85.50;;;;;;5020520;28;20030;-85
2022/08/06 09:56:32;;;;;;;2.22;0.70;;;22.80;87.10;;;;;;5012426;28;20029;-86
2022/08/06 09:59:00;;;;;;;2.30;0.70;;;23.60;84.10;;;;;;5010428;28;20030;-86
2022/08/06 10:01:27;;;;;;;2.88;0.90;;;24.60;78.10;;;;;;5009093;28;20034;-86
2022/08/06 10:03:56;;;;;;;2.72;0.73;;;25.80;76.50;;;;;;5010198;28;20077;-86
2022/08/06 10:06:22;;;;;;;2.65;0.90;;;24.60;77.50;;;;;;5013627;28;20026;-86
2022/08/06 10:09:04;;;;;;;2.85;0.80;;;24.50;77.40;;;;;;5019399;28;20024;-86
2022/08/06 10:11:41;;;;;;;3.65;1.00;;;25.30;77.80;;;;;;5014298;28;20036;-87
2022/08/06 10:14:24;;;;;;;3.42;1.08;;;24.20;78.10;;;;;;5009370;28;20033;-86
2022/08/06 10:17:08;;;;;;;3.78;1.00;;;22.70;82.90;;;;;;5015842;28;20045;-87
2022/08/06 10:19:34;;;;;;;1.95;0.90;;;22.40;83.90;;;;;;5024000;28;20434;-86
2022/08/06 10:22:08;;;;;;;4.28;1.08;;;22.20;82.10;;;;;;5028483;28;20029;-86
2022/08/06 10:24:39;;;;;;;4.88;1.20;;;22.60;81.90;;;;;;5004892;28;20446;-86
2022/08/06 10:27:11;;;;;;;5.57;1.00;;;24.00;78.30;;;;;;5006252;28;20436;-86
2022/08/06 10:29:45;;;;;;;3.70;0.80;;;24.70;76.40;;;;;;5010704;28;20076;-86
2022/08/06 10:32:15;;;;;;;3.20;1.02;;;24.60;76.10;;;;;;5012374;28;20105;-86
2022/08/06 10:34:44;;;;;;;4.75;1.02;;;25.40;73.60;;;;;;5016633;28;20022;-86
2022/08/06 10:37:11;;;;;;;4.33;1.10;;;25.40;72.90;;;;;;5013343;28;20044;-85
2022/08/06 10:39:42;;;;;;;3.05;0.90;;;24.20;74.30;;;;;;5006630;28;20105;-85
2022/08/06 10:42:08;;;;;;;2.97;0.80;;;23.30;79.20;;;;;;5011333;28;20026;-85
2022/08/06 10:44:35;;;;;;;3.70;1.10;;;23.30;75.70;;;;;;5019038;28;20520;-85
2022/08/06 10:47:01;;;;;;;3.28;0.90;;;22.30;78.20;;;;;;5009603;28;20401;-85
2022/08/06 10:49:30;;;;;;;3.30;0.90;;;22.70;82.80;;;;;;5007182;28;20030;-85
2022/08/06 10:51:56;;;;;;;1.58;0.80;;;24.30;77.50;;;;;;5015173;28;20549;-86
2022/08/06 10:54:23;;;;;;;5.35;1.10;;;25.40;72.70;;;;;;5019701;28;20033;-85
2022/08/06 10:56:50;;;;;;;3.30;1.10;;;24.50;73.00;;;;;;5015349;28;20022;-85
2022/08/06 10:59:16;;;;;;;3.42;1.17;;;23.90;75.70;;;;;;5025180;28;20022;-86
2022/08/06 11:02:20;;;;;;;3.90;1.00;;;24.70;73.10;;;;;;5017164;28;20509;-86
2022/08/06 11:04:52;;;;;;;3.00;0.90;;;26.60;75.80;;;;;;5001762;28;20038;-86
2022/08/06 11:07:52;;;;;;;2.22;0.80;;;27.50;72.10;;;;;;5015505;28;20067;-86
2022/08/06 11:10:24;;;;;;;2.45;0.75;;;26.50;69.50;;;;;;5014964;28;20089;-86
2022/08/06 11:13:05;;;;;;;1.80;0.80;;;24.60;72.70;;;;;;5021213;28;20022;-86
2022/08/06 11:15:35;;;;;;;3.47;0.80;;;23.90;74.10;;;;;;5029547;28;20018;-86
2022/08/06 11:18:06;;;;;;;2.15;0.70;;;24.50;70.50;;;;;;5016181;28;20111;-86
2022/08/06 11:20:32;;;;;;;2.25;0.80;;;26.30;69.70;;;;;;5010452;28;20112;-86
2022/08/06 11:23:10;;;;;;;1.33;0.70;;;28.50;67.70;;;;;;5019280;28;20038;-86
2022/08/06 11:25:43;;;;;;;1.92;0.80;;;28.80;65.80;;;;;;5014668;28;20105;-86
2022/08/06 11:28:11;;;;;;;2.15;0.90;;;27.00;66.30;;;;;;5013205;28;20030;-86
2022/08/06 11:30:42;;;;;;;2.22;0.88;;;25.40;67.30;;;;;;5016627;28;20107;-86
2022/08/06 11:33:10;;;;;;;1.95;0.80;;;24.40;67.90;;;;;;5012817;28;20458;-86
2022/08/06 11:35:35;;;;;;;1.70;0.73;;;23.40;70.60;;;;;;5015901;28;20096;-85
2022/08/06 11:38:04;;;;;;;2.60;0.90;;;23.60;71.90;;;;;;5008018;28;20052;-86
2022/08/06 11:40:59;;;;;;;1.63;0.70;;;26.30;66.10;;;;;;5015047;28;20037;-86
2022/08/06 11:43:40;;;;;;;1.63;0.50;;;28.60;66.00;;;;;;5015153;28;20030;-86
2022/08/06 11:46:39;;;;;;;1.63;0.60;;;29.20;61.80;;;;;;5014312;28;20042;-86
2022/08/06 11:49:48;;;;;;;5.55;0.90;;;29.90;64.00;;;;;;5007839;28;20038;-86
2022/08/06 11:52:32;;;;;;;2.90;0.80;;;31.80;60.30;;;;;;4988210;28;20057;-86
2022/08/06 11:55:04;;;;;;;2.40;0.70;;;33.20;56.90;;;;;;5013434;28;20026;-86
2022/08/06 11:57:30;;;;;;;4.00;0.90;;;30.20;56.00;;;;;;5035617;28;20040;-85
2022/08/06 11:59:56;;;;;;;1.75;0.63;;;31.30;56.60;;;;;;5016056;28;20367;-85
2022/08/06 12:02:41;;;;;;;4.53;0.90;;;31.50;56.50;;;;;;5013074;28;20033;-85
2022/08/06 12:05:27;;;;;;;2.42;0.70;;;29.90;56.80;;;;;;5032900;28;20030;-85
2022/08/06 12:08:11;;;;;;;2.95;0.80;;;27.60;59.40;;;;;;5011455;28;20034;-85
2022/08/06 12:10:36;;;;;;;3.47;0.70;;;26.50;60.20;;;;;;5011716;28;20506;-85
2022/08/06 12:13:02;;;;;;;1.17;0.70;;;25.40;61.40;;;;;;5015573;28;20025;-87
2022/08/06 12:15:30;;;;;;;4.30;0.90;;;26.50;62.50;;;;;;5006205;28;20125;-87
2022/08/06 12:18:00;;;;;;;3.25;0.77;;;29.20;60.50;;;;;;5009037;28;20022;-87
2022/08/06 12:20:40;;;;;;;3.60;0.70;;;29.40;55.10;;;;;;5013501;28;20022;-87
2022/08/06 12:23:06;;;;;;;2.53;0.80;;;30.40;58.60;;;;;;5012176;28;20025;-87
2022/08/06 12:25:38;;;;;;;0.77;0.55;;;31.30;56.70;;;;;;5013445;28;20018;-87
2022/08/06 12:28:06;;;;;;;0.80;0.60;;;31.60;55.30;;;;;;5008481;28;20018;-87
2022/08/06 12:30:50;;;;;;;1.27;0.50;;;32.00;54.40;;;;;;5017006;28;20116;-87
2022/08/06 12:33:17;;;;;;;2.72;0.63;;;30.80;55.60;;;;;;5008569;28;20038;-87
2022/08/06 12:35:59;;;;;;;4.50;0.90;;;30.70;55.90;;;;;;5006459;28;20030;-87
2022/08/06 12:38:31;;;;;;;1.80;0.70;;;28.40;58.70;;;;;;5012333;28;20493;-87
2022/08/06 12:40:59;;;;;;;4.65;0.90;;;29.00;57.90;;;;;;5009219;28;20473;-87
2022/08/06 12:43:28;;;;;;;1.23;0.60;;;27.80;57.20;;;;;;5010902;28;20021;-87
2022/08/06 12:46:05;;;;;;;3.03;0.80;;;28.00;58.50;;;;;;5021770;28;20588;-87
2022/08/06 12:48:33;;;;;;;1.65;0.70;;;27.80;58.40;;;;;;5002475;28;20046;-87
2022/08/06 12:51:05;;;;;;;2.60;1.02;;;27.50;57.70;;;;;;5003595;28;20045;-88
2022/08/06 12:53:30;;;;;;;1.20;0.63;;;29.40;57.80;;;;;;5003950;28;20056;-88
2022/08/06 12:55:57;;;;;;;2.33;0.73;;;30.60;56.90;;;;;;5009360;28;20038;-89
2022/08/06 12:58:28;;;;;;;2.30;0.80;;;32.40;55.50;;;;;;5008496;28;20087;-88
2022/08/06 13:01:00;;;;;;;1.70;0.80;;;30.90;53.50;;;;;;5009225;28;20037;-87
2022/08/06 13:03:29;;;;;;;2.47;0.80;;;31.80;55.10;;;;;;5015075;28;20069;-87
2022/08/06 13:05:59;;;;;;;2.17;0.70;;;31.10;53.40;;;;;;5008635;28;20021;-87
2022/08/06 13:08:25;;;;;;;1.65;0.70;;;31.20;54.00;;;;;;5006262;28;20114;-87